sensor_id;sensor_type;location;lat;lon;timestamp;temperature;humidity
9790;DHT22;4934;50.852;8.098;2022-10-16T00:02:12;12.40;99.90
9790;DHT22;4934;50.852;8.098;2022-10-16T00:04:38;12.40;99.90
9790;DHT22;4934;50.852;8.098;2022-10-16T00:07:03;12.40;99.90
9790;DHT22;4934;50.852;8.098;2022-10-16T00:09:29;12.40;99.90
9790;DHT22;4934;50.852;8.098;2022-10-16T00:11:55;12.30;99.90
9790;DHT22;4934;50.852;8.098;2022-10-16T00:14:20;12.30;99.90
9790;DHT22;4934;50.852;8.098;2022-10-16T00:16:46;12.20;99.90
9790;DHT22;4934;50.852;8.098;2022-10-16T00:19:11;12.20;99.90
9790;DHT22;4934;50.852;8.098;2022-10-16T00:21:37;12.20;99.90
9790;DHT22;4934;50.852;8.098;2022-10-16T00:24:06;12.20;99.90
9790;DHT22;4934;50.852;8.098;2022-10-16T00:26:35;12.10;99.90
9790;DHT22;4934;50.852;8.098;2022-10-16T00:29:01;12.20;99.90
9790;DHT22;4934;50.852;8.098;2022-10-16T00:31:27;12.20;99.90
9790;DHT22;4934;50.852;8.098;2022-10-16T00:33:53;12.20;99.90
9790;DHT22;4934;50.852;8.098;2022-10-16T00:36:21;12.10;99.90
9790;DHT22;4934;50.852;8.098;2022-10-16T00:38:50;12.10;99.90
9790;DHT22;4934;50.852;8.098;2022-10-16T00:41:18;12.10;99.90
9790;DHT22;4934;50.852;8.098;2022-10-16T00:43:46;12.10;99.90
9790;DHT22;4934;50.852;8.098;2022-10-16T00:46:19;12.10;99.90
9790;DHT22;4934;50.852;8.098;2022-10-16T00:51:19;12.00;99.90
9790;DHT22;4934;50.852;8.098;2022-10-16T00:53:47;12.00;99.90
9790;DHT22;4934;50.852;8.098;2022-10-16T00:56:13;12.00;99.90
9790;DHT22;4934;50.852;8.098;2022-10-16T00:58:39;11.90;99.90
9790;DHT22;4934;50.852;8.098;2022-10-16T01:01:04;12.00;99.90
9790;DHT22;4934;50.852;8.098;2022-10-16T01:03:35;12.10;99.90
9790;DHT22;4934;50.852;8.098;2022-10-16T01:11:49;11.80;99.90
9790;DHT22;4934;50.852;8.098;2022-10-16T01:14:36;11.80;99.90
9790;DHT22;4934;50.852;8.098;2022-10-16T01:17:16;11.70;99.90
9790;DHT22;4934;50.852;8.098;2022-10-16T01:20:29;11.80;99.90
9790;DHT22;4934;50.852;8.098;2022-10-16T01:26:12;11.70;99.90
9790;DHT22;4934;50.852;8.098;2022-10-16T01:28:49;11.70;99.90
9790;DHT22;4934;50.852;8.098;2022-10-16T01:31:19;11.70;99.90
9790;DHT22;4934;50.852;8.098;2022-10-16T01:33:51;11.90;99.90
9790;DHT22;4934;50.852;8.098;2022-10-16T01:36:23;11.80;99.90
9790;DHT22;4934;50.852;8.098;2022-10-16T01:38:52;11.70;99.90
9790;DHT22;4934;50.852;8.098;2022-10-16T01:41:26;11.70;99.90
9790;DHT22;4934;50.852;8.098;2022-10-16T01:46:34;11.60;99.90
9790;DHT22;4934;50.852;8.098;2022-10-16T01:49:02;11.60;99.90
9790;DHT22;4934;50.852;8.098;2022-10-16T01:51:28;11.60;99.90
9790;DHT22;4934;50.852;8.098;2022-10-16T01:53:58;11.50;99.90
9790;DHT22;4934;50.852;8.098;2022-10-16T01:56:25;11.50;99.90
9790;DHT22;4934;50.852;8.098;2022-10-16T01:59:12;11.40;99.90
9790;DHT22;4934;50.852;8.098;2022-10-16T02:01:42;11.40;99.90
9790;DHT22;4934;50.852;8.098;2022-10-16T02:06:46;11.50;99.90
9790;DHT22;4934;50.852;8.098;2022-10-16T02:09:12;11.40;99.90
9790;DHT22;4934;50.852;8.098;2022-10-16T02:11:37;11.30;99.90
9790;DHT22;4934;50.852;8.098;2022-10-16T02:14:05;11.30;99.90
9790;DHT22;4934;50.852;8.098;2022-10-16T02:16:39;11.30;99.90
9790;DHT22;4934;50.852;8.098;2022-10-16T02:19:05;11.20;99.90
9790;DHT22;4934;50.852;8.098;2022-10-16T02:21:40;11.20;99.90
9790;DHT22;4934;50.852;8.098;2022-10-16T02:24:26;11.10;99.90
9790;DHT22;4934;50.852;8.098;2022-10-16T02:32:34;11.30;99.90
9790;DHT22;4934;50.852;8.098;2022-10-16T02:35:02;11.30;99.90
9790;DHT22;4934;50.852;8.098;2022-10-16T02:37:29;11.20;99.90
9790;DHT22;4934;50.852;8.098;2022-10-16T02:39:57;11.10;99.90
9790;DHT22;4934;50.852;8.098;2022-10-16T02:42:29;11.10;99.90
9790;DHT22;4934;50.852;8.098;2022-10-16T02:44:55;11.00;99.90
9790;DHT22;4934;50.852;8.098;2022-10-16T02:47:20;10.90;99.90
9790;DHT22;4934;50.852;8.098;2022-10-16T02:49:46;11.00;99.90
9790;DHT22;4934;50.852;8.098;2022-10-16T02:52:11;10.90;99.90
9790;DHT22;4934;50.852;8.098;2022-10-16T02:54:37;10.90;99.90
9790;DHT22;4934;50.852;8.098;2022-10-16T02:57:03;10.90;99.90
9790;DHT22;4934;50.852;8.098;2022-10-16T02:59:28;10.90;99.90
9790;DHT22;4934;50.852;8.098;2022-10-16T03:01:54;10.80;99.90
9790;DHT22;4934;50.852;8.098;2022-10-16T03:04:19;10.90;99.90
9790;DHT22;4934;50.852;8.098;2022-10-16T03:06:45;10.80;99.90
9790;DHT22;4934;50.852;8.098;2022-10-16T03:09:10;10.90;99.90
9790;DHT22;4934;50.852;8.098;2022-10-16T03:11:36;10.80;99.90
9790;DHT22;4934;50.852;8.098;2022-10-16T03:14:02;10.70;99.90
9790;DHT22;4934;50.852;8.098;2022-10-16T03:16:27;10.80;99.90
9790;DHT22;4934;50.852;8.098;2022-10-16T03:18:53;10.90;99.90
9790;DHT22;4934;50.852;8.098;2022-10-16T03:21:18;10.80;99.90
9790;DHT22;4934;50.852;8.098;2022-10-16T03:23:44;10.70;99.90
9790;DHT22;4934;50.852;8.098;2022-10-16T03:26:09;10.70;99.90
9790;DHT22;4934;50.852;8.098;2022-10-16T03:28:35;10.70;99.90
9790;DHT22;4934;50.852;8.098;2022-10-16T03:31:00;10.70;99.90
9790;DHT22;4934;50.852;8.098;2022-10-16T03:33:26;10.60;99.90
9790;DHT22;4934;50.852;8.098;2022-10-16T03:35:53;10.60;99.90
9790;DHT22;4934;50.852;8.098;2022-10-16T03:38:20;10.60;99.90
9790;DHT22;4934;50.852;8.098;2022-10-16T03:40:45;10.70;99.90
9790;DHT22;4934;50.852;8.098;2022-10-16T03:43:11;10.60;99.90
9790;DHT22;4934;50.852;8.098;2022-10-16T03:45:37;10.70;99.90
9790;DHT22;4934;50.852;8.098;2022-10-16T03:48:03;10.70;99.90
9790;DHT22;4934;50.852;8.098;2022-10-16T03:50:29;10.70;99.90
9790;DHT22;4934;50.852;8.098;2022-10-16T03:52:55;10.70;99.90
9790;DHT22;4934;50.852;8.098;2022-10-16T03:55:21;10.80;99.90
9790;DHT22;4934;50.852;8.098;2022-10-16T03:57:46;10.80;99.90
9790;DHT22;4934;50.852;8.098;2022-10-16T04:00:12;10.80;99.90
9790;DHT22;4934;50.852;8.098;2022-10-16T04:02:39;10.80;99.90
9790;DHT22;4934;50.852;8.098;2022-10-16T04:05:04;10.80;99.90
9790;DHT22;4934;50.852;8.098;2022-10-16T04:07:30;10.90;99.90
9790;DHT22;4934;50.852;8.098;2022-10-16T04:09:56;10.90;99.90
9790;DHT22;4934;50.852;8.098;2022-10-16T04:12:24;11.10;99.90
9790;DHT22;4934;50.852;8.098;2022-10-16T04:14:49;11.10;99.90
9790;DHT22;4934;50.852;8.098;2022-10-16T04:17:15;11.00;99.90
9790;DHT22;4934;50.852;8.098;2022-10-16T04:19:41;10.90;99.90
9790;DHT22;4934;50.852;8.098;2022-10-16T04:22:06;10.90;99.90
9790;DHT22;4934;50.852;8.098;2022-10-16T04:24:32;10.90;99.90
9790;DHT22;4934;50.852;8.098;2022-10-16T04:26:57;10.90;99.90
9790;DHT22;4934;50.852;8.098;2022-10-16T04:29:23;10.90;99.90
9790;DHT22;4934;50.852;8.098;2022-10-16T04:31:49;11.00;99.90
9790;DHT22;4934;50.852;8.098;2022-10-16T04:34:14;11.00;99.90
9790;DHT22;4934;50.852;8.098;2022-10-16T04:36:40;11.00;99.90
9790;DHT22;4934;50.852;8.098;2022-10-16T04:39:05;11.00;99.90
9790;DHT22;4934;50.852;8.098;2022-10-16T04:41:31;11.10;99.90
9790;DHT22;4934;50.852;8.098;2022-10-16T04:43:57;11.10;99.90
9790;DHT22;4934;50.852;8.098;2022-10-16T04:46:22;11.20;99.90
9790;DHT22;4934;50.852;8.098;2022-10-16T04:48:48;11.20;99.90
9790;DHT22;4934;50.852;8.098;2022-10-16T04:51:13;11.20;99.90
9790;DHT22;4934;50.852;8.098;2022-10-16T04:53:39;11.30;99.90
9790;DHT22;4934;50.852;8.098;2022-10-16T04:56:05;11.30;99.90
9790;DHT22;4934;50.852;8.098;2022-10-16T04:58:30;11.40;99.90
9790;DHT22;4934;50.852;8.098;2022-10-16T05:00:56;11.40;99.90
9790;DHT22;4934;50.852;8.098;2022-10-16T05:03:21;11.40;99.90
9790;DHT22;4934;50.852;8.098;2022-10-16T05:05:47;11.50;99.90
9790;DHT22;4934;50.852;8.098;2022-10-16T05:08:14;11.50;99.90
9790;DHT22;4934;50.852;8.098;2022-10-16T05:10:42;11.60;99.90
9790;DHT22;4934;50.852;8.098;2022-10-16T05:13:08;11.60;99.90
9790;DHT22;4934;50.852;8.098;2022-10-16T05:15:33;11.60;99.90
9790;DHT22;4934;50.852;8.098;2022-10-16T05:17:59;11.70;99.90
9790;DHT22;4934;50.852;8.098;2022-10-16T05:20:25;11.80;99.90
9790;DHT22;4934;50.852;8.098;2022-10-16T05:22:51;11.90;99.90
9790;DHT22;4934;50.852;8.098;2022-10-16T05:25:16;11.90;99.90
9790;DHT22;4934;50.852;8.098;2022-10-16T05:27:42;11.90;99.90
9790;DHT22;4934;50.852;8.098;2022-10-16T05:30:08;11.90;99.90
9790;DHT22;4934;50.852;8.098;2022-10-16T05:32:34;11.90;99.90
9790;DHT22;4934;50.852;8.098;2022-10-16T05:34:59;11.90;99.90
9790;DHT22;4934;50.852;8.098;2022-10-16T05:37:27;11.90;99.90
9790;DHT22;4934;50.852;8.098;2022-10-16T05:39:52;11.90;99.90
9790;DHT22;4934;50.852;8.098;2022-10-16T05:42:18;11.90;99.90
9790;DHT22;4934;50.852;8.098;2022-10-16T05:44:44;11.90;99.90
9790;DHT22;4934;50.852;8.098;2022-10-16T05:47:09;11.90;99.90
9790;DHT22;4934;50.852;8.098;2022-10-16T05:49:36;11.90;99.90
9790;DHT22;4934;50.852;8.098;2022-10-16T05:52:01;12.00;99.90
9790;DHT22;4934;50.852;8.098;2022-10-16T05:54:27;12.00;99.90
9790;DHT22;4934;50.852;8.098;2022-10-16T05:56:53;11.90;99.90
9790;DHT22;4934;50.852;8.098;2022-10-16T05:59:18;12.00;99.90
9790;DHT22;4934;50.852;8.098;2022-10-16T06:01:44;11.90;99.90
9790;DHT22;4934;50.852;8.098;2022-10-16T06:04:10;12.00;99.90
9790;DHT22;4934;50.852;8.098;2022-10-16T06:06:35;11.90;99.90
9790;DHT22;4934;50.852;8.098;2022-10-16T06:09:02;11.90;99.90
9790;DHT22;4934;50.852;8.098;2022-10-16T06:11:30;12.00;99.90
9790;DHT22;4934;50.852;8.098;2022-10-16T06:13:58;12.00;99.90
9790;DHT22;4934;50.852;8.098;2022-10-16T06:16:25;12.00;99.90
9790;DHT22;4934;50.852;8.098;2022-10-16T06:18:52;12.10;99.90
9790;DHT22;4934;50.852;8.098;2022-10-16T06:21:21;12.10;99.90
9790;DHT22;4934;50.852;8.098;2022-10-16T06:23:47;12.20;99.90
9790;DHT22;4934;50.852;8.098;2022-10-16T06:26:15;12.30;99.90
9790;DHT22;4934;50.852;8.098;2022-10-16T06:28:41;12.30;99.90
9790;DHT22;4934;50.852;8.098;2022-10-16T06:31:09;12.30;99.90
9790;DHT22;4934;50.852;8.098;2022-10-16T06:33:36;12.40;99.90
9790;DHT22;4934;50.852;8.098;2022-10-16T06:36:20;12.40;99.90
9790;DHT22;4934;50.852;8.098;2022-10-16T06:38:46;12.50;99.90
9790;DHT22;4934;50.852;8.098;2022-10-16T06:41:20;12.50;99.90
9790;DHT22;4934;50.852;8.098;2022-10-16T06:43:46;12.60;99.90
9790;DHT22;4934;50.852;8.098;2022-10-16T06:46:14;12.70;99.90
9790;DHT22;4934;50.852;8.098;2022-10-16T06:48:40;12.70;99.90
9790;DHT22;4934;50.852;8.098;2022-10-16T06:53:34;12.80;99.90
9790;DHT22;4934;50.852;8.098;2022-10-16T06:56:14;12.90;99.90
9790;DHT22;4934;50.852;8.098;2022-10-16T06:58:41;13.00;99.90
9790;DHT22;4934;50.852;8.098;2022-10-16T07:01:07;13.00;99.90
9790;DHT22;4934;50.852;8.098;2022-10-16T07:03:33;13.10;99.90
9790;DHT22;4934;50.852;8.098;2022-10-16T07:06:02;13.20;99.90
9790;DHT22;4934;50.852;8.098;2022-10-16T07:08:34;13.20;99.90
9790;DHT22;4934;50.852;8.098;2022-10-16T07:11:05;13.20;99.90
9790;DHT22;4934;50.852;8.098;2022-10-16T07:13:35;13.20;99.90
9790;DHT22;4934;50.852;8.098;2022-10-16T07:16:21;13.30;99.90
9790;DHT22;4934;50.852;8.098;2022-10-16T07:18:47;13.30;99.90
9790;DHT22;4934;50.852;8.098;2022-10-16T07:21:23;13.20;99.90
9790;DHT22;4934;50.852;8.098;2022-10-16T07:23:55;13.30;99.90
9790;DHT22;4934;50.852;8.098;2022-10-16T07:26:22;13.30;99.90
9790;DHT22;4934;50.852;8.098;2022-10-16T07:28:49;13.40;99.90
9790;DHT22;4934;50.852;8.098;2022-10-16T07:31:18;13.40;99.90
9790;DHT22;4934;50.852;8.098;2022-10-16T07:33:45;13.50;99.90
9790;DHT22;4934;50.852;8.098;2022-10-16T07:36:14;13.60;99.90
9790;DHT22;4934;50.852;8.098;2022-10-16T07:38:39;13.70;99.90
9790;DHT22;4934;50.852;8.098;2022-10-16T07:41:11;13.80;99.90
9790;DHT22;4934;50.852;8.098;2022-10-16T07:43:37;13.90;99.90
9790;DHT22;4934;50.852;8.098;2022-10-16T07:46:03;14.10;99.90
9790;DHT22;4934;50.852;8.098;2022-10-16T07:48:34;14.20;99.90
9790;DHT22;4934;50.852;8.098;2022-10-16T07:51:02;14.20;99.90
9790;DHT22;4934;50.852;8.098;2022-10-16T07:53:28;14.30;99.90
9790;DHT22;4934;50.852;8.098;2022-10-16T07:56:01;14.40;99.90
9790;DHT22;4934;50.852;8.098;2022-10-16T07:58:28;14.50;99.90
9790;DHT22;4934;50.852;8.098;2022-10-16T08:00:55;14.70;99.90
9790;DHT22;4934;50.852;8.098;2022-10-16T08:03:20;14.80;99.90
9790;DHT22;4934;50.852;8.098;2022-10-16T08:05:46;14.90;99.90
9790;DHT22;4934;50.852;8.098;2022-10-16T08:08:16;15.00;99.90
9790;DHT22;4934;50.852;8.098;2022-10-16T08:10:42;15.10;99.90
9790;DHT22;4934;50.852;8.098;2022-10-16T08:13:08;15.10;99.90
9790;DHT22;4934;50.852;8.098;2022-10-16T08:15:33;15.20;99.90
9790;DHT22;4934;50.852;8.098;2022-10-16T08:18:01;15.30;99.90
9790;DHT22;4934;50.852;8.098;2022-10-16T08:20:28;15.30;99.90
9790;DHT22;4934;50.852;8.098;2022-10-16T08:22:54;15.40;99.90
9790;DHT22;4934;50.852;8.098;2022-10-16T08:25:21;15.50;99.90
9790;DHT22;4934;50.852;8.098;2022-10-16T08:27:46;15.50;99.90
9790;DHT22;4934;50.852;8.098;2022-10-16T08:30:12;15.70;99.90
9790;DHT22;4934;50.852;8.098;2022-10-16T08:32:39;15.80;99.90
9790;DHT22;4934;50.852;8.098;2022-10-16T08:35:05;15.90;99.90
9790;DHT22;4934;50.852;8.098;2022-10-16T08:37:31;16.00;99.90
9790;DHT22;4934;50.852;8.098;2022-10-16T08:39:57;16.10;99.90
9790;DHT22;4934;50.852;8.098;2022-10-16T08:50:58;16.30;99.90
9790;DHT22;4934;50.852;8.098;2022-10-16T08:53:31;16.30;99.90
9790;DHT22;4934;50.852;8.098;2022-10-16T08:55:59;16.30;99.90
9790;DHT22;4934;50.852;8.098;2022-10-16T08:58:29;16.20;99.90
9790;DHT22;4934;50.852;8.098;2022-10-16T09:00:58;16.10;99.90
9790;DHT22;4934;50.852;8.098;2022-10-16T09:06:26;16.20;99.90
9790;DHT22;4934;50.852;8.098;2022-10-16T09:22:46;15.80;99.90
9790;DHT22;4934;50.852;8.098;2022-10-16T09:25:21;15.80;99.90
9790;DHT22;4934;50.852;8.098;2022-10-16T09:27:52;15.90;99.90
9790;DHT22;4934;50.852;8.098;2022-10-16T09:30:20;15.90;99.90
9790;DHT22;4934;50.852;8.098;2022-10-16T09:32:50;15.90;99.90
9790;DHT22;4934;50.852;8.098;2022-10-16T09:35:20;16.10;99.90
9790;DHT22;4934;50.852;8.098;2022-10-16T09:37:49;16.20;99.90
9790;DHT22;4934;50.852;8.098;2022-10-16T09:40:36;16.20;99.90
9790;DHT22;4934;50.852;8.098;2022-10-16T09:43:20;16.40;99.90
9790;DHT22;4934;50.852;8.098;2022-10-16T09:45:58;16.40;99.90
9790;DHT22;4934;50.852;8.098;2022-10-16T09:48:26;16.40;99.90
9790;DHT22;4934;50.852;8.098;2022-10-16T09:51:01;16.50;99.90
9790;DHT22;4934;50.852;8.098;2022-10-16T09:53:45;16.60;99.90
9790;DHT22;4934;50.852;8.098;2022-10-16T09:56:21;16.60;99.90
9790;DHT22;4934;50.852;8.098;2022-10-16T09:58:52;16.60;99.90
9790;DHT22;4934;50.852;8.098;2022-10-16T10:01:19;16.70;99.90
9790;DHT22;4934;50.852;8.098;2022-10-16T10:03:45;16.80;99.90
9790;DHT22;4934;50.852;8.098;2022-10-16T10:06:25;16.90;99.90
9790;DHT22;4934;50.852;8.098;2022-10-16T10:08:59;17.10;99.90
9790;DHT22;4934;50.852;8.098;2022-10-16T10:14:18;17.30;99.90
9790;DHT22;4934;50.852;8.098;2022-10-16T10:16:45;17.30;99.90
9790;DHT22;4934;50.852;8.098;2022-10-16T10:19:23;17.30;99.90
9790;DHT22;4934;50.852;8.098;2022-10-16T10:21:50;17.10;99.90
9790;DHT22;4934;50.852;8.098;2022-10-16T10:24:19;17.20;99.90
9790;DHT22;4934;50.852;8.098;2022-10-16T10:27:00;17.20;99.90
9790;DHT22;4934;50.852;8.098;2022-10-16T10:30:01;17.10;99.90
9790;DHT22;4934;50.852;8.098;2022-10-16T10:37:58;17.40;99.90
9790;DHT22;4934;50.852;8.098;2022-10-16T10:40:39;17.40;99.90
9790;DHT22;4934;50.852;8.098;2022-10-16T10:45:58;17.40;99.90
9790;DHT22;4934;50.852;8.098;2022-10-16T10:48:38;17.50;99.90
9790;DHT22;4934;50.852;8.098;2022-10-16T10:51:13;17.40;99.90
9790;DHT22;4934;50.852;8.098;2022-10-16T10:57:04;17.30;99.90
9790;DHT22;4934;50.852;8.098;2022-10-16T11:02:55;17.60;99.90
9790;DHT22;4934;50.852;8.098;2022-10-16T11:05:42;17.80;99.90
9790;DHT22;4934;50.852;8.098;2022-10-16T11:11:04;18.10;99.90
9790;DHT22;4934;50.852;8.098;2022-10-16T11:16:13;18.20;99.90
9790;DHT22;4934;50.852;8.098;2022-10-16T11:18:49;18.30;99.90
9790;DHT22;4934;50.852;8.098;2022-10-16T11:21:19;18.50;99.90
9790;DHT22;4934;50.852;8.098;2022-10-16T11:23:56;18.60;99.90
9790;DHT22;4934;50.852;8.098;2022-10-16T11:26:28;18.70;99.90
9790;DHT22;4934;50.852;8.098;2022-10-16T11:28:56;18.80;99.90
9790;DHT22;4934;50.852;8.098;2022-10-16T11:31:26;18.90;99.90
9790;DHT22;4934;50.852;8.098;2022-10-16T11:34:17;18.80;99.90
9790;DHT22;4934;50.852;8.098;2022-10-16T11:37:02;18.90;99.90
9790;DHT22;4934;50.852;8.098;2022-10-16T11:39:30;19.00;99.90
9790;DHT22;4934;50.852;8.098;2022-10-16T11:44:46;19.10;99.90
9790;DHT22;4934;50.852;8.098;2022-10-16T11:49:59;19.00;99.90
9790;DHT22;4934;50.852;8.098;2022-10-16T11:52:40;19.00;99.90
9790;DHT22;4934;50.852;8.098;2022-10-16T11:55:24;18.90;99.90
9790;DHT22;4934;50.852;8.098;2022-10-16T11:58:02;19.00;99.90
9790;DHT22;4934;50.852;8.098;2022-10-16T12:00:38;18.70;99.90
9790;DHT22;4934;50.852;8.098;2022-10-16T12:09:05;19.10;99.90
9790;DHT22;4934;50.852;8.098;2022-10-16T12:11:37;19.00;99.90
9790;DHT22;4934;50.852;8.098;2022-10-16T12:14:33;19.00;99.90
9790;DHT22;4934;50.852;8.098;2022-10-16T12:17:22;19.10;99.90
9790;DHT22;4934;50.852;8.098;2022-10-16T12:19:59;19.40;99.90
9790;DHT22;4934;50.852;8.098;2022-10-16T12:22:28;19.60;99.90
9790;DHT22;4934;50.852;8.098;2022-10-16T12:24:55;19.70;99.90
9790;DHT22;4934;50.852;8.098;2022-10-16T12:27:31;19.80;99.90
9790;DHT22;4934;50.852;8.098;2022-10-16T12:30:03;19.90;99.90
9790;DHT22;4934;50.852;8.098;2022-10-16T12:32:36;19.90;99.90
9790;DHT22;4934;50.852;8.098;2022-10-16T12:35:03;19.90;99.90
9790;DHT22;4934;50.852;8.098;2022-10-16T12:37:37;19.90;99.90
9790;DHT22;4934;50.852;8.098;2022-10-16T12:40:34;20.00;99.90
9790;DHT22;4934;50.852;8.098;2022-10-16T12:43:12;20.00;99.90
9790;DHT22;4934;50.852;8.098;2022-10-16T12:45:38;20.00;99.90
9790;DHT22;4934;50.852;8.098;2022-10-16T12:48:19;19.90;99.90
9790;DHT22;4934;50.852;8.098;2022-10-16T12:50:45;19.60;99.90
9790;DHT22;4934;50.852;8.098;2022-10-16T12:53:21;19.40;99.90
9790;DHT22;4934;50.852;8.098;2022-10-16T12:58:33;19.80;99.90
9790;DHT22;4934;50.852;8.098;2022-10-16T13:06:53;20.10;99.90
9790;DHT22;4934;50.852;8.098;2022-10-16T13:09:43;19.80;99.90
9790;DHT22;4934;50.852;8.098;2022-10-16T13:12:19;19.70;99.90
9790;DHT22;4934;50.852;8.098;2022-10-16T13:25:38;19.90;99.90
9790;DHT22;4934;50.852;8.098;2022-10-16T13:28:07;19.90;99.90
9790;DHT22;4934;50.852;8.098;2022-10-16T13:30:51;19.80;99.90
9790;DHT22;4934;50.852;8.098;2022-10-16T13:33:21;19.70;99.90
9790;DHT22;4934;50.852;8.098;2022-10-16T13:35:51;19.80;99.90
9790;DHT22;4934;50.852;8.098;2022-10-16T13:38:23;19.90;99.90
9790;DHT22;4934;50.852;8.098;2022-10-16T13:43:40;19.70;99.90
9790;DHT22;4934;50.852;8.098;2022-10-16T13:46:13;19.80;99.90
9790;DHT22;4934;50.852;8.098;2022-10-16T13:48:39;19.80;99.90
9790;DHT22;4934;50.852;8.098;2022-10-16T13:51:11;19.60;99.90
9790;DHT22;4934;50.852;8.098;2022-10-16T13:53:37;19.60;99.90
9790;DHT22;4934;50.852;8.098;2022-10-16T13:56:06;19.60;99.90
9790;DHT22;4934;50.852;8.098;2022-10-16T13:58:32;19.50;99.90
9790;DHT22;4934;50.852;8.098;2022-10-16T14:03:24;19.10;99.90
9790;DHT22;4934;50.852;8.098;2022-10-16T14:05:53;19.20;99.90
9790;DHT22;4934;50.852;8.098;2022-10-16T14:08:19;19.20;99.90
9790;DHT22;4934;50.852;8.098;2022-10-16T14:10:49;19.30;99.90
9790;DHT22;4934;50.852;8.098;2022-10-16T14:13:18;19.20;99.90
9790;DHT22;4934;50.852;8.098;2022-10-16T14:15:49;19.10;99.90
9790;DHT22;4934;50.852;8.098;2022-10-16T14:18:23;19.20;99.90
9790;DHT22;4934;50.852;8.098;2022-10-16T14:20:50;19.30;99.90
9790;DHT22;4934;50.852;8.098;2022-10-16T14:23:22;19.20;99.90
9790;DHT22;4934;50.852;8.098;2022-10-16T14:25:48;19.30;99.90
9790;DHT22;4934;50.852;8.098;2022-10-16T14:28:19;19.40;99.90
9790;DHT22;4934;50.852;8.098;2022-10-16T14:30:57;19.50;99.90
9790;DHT22;4934;50.852;8.098;2022-10-16T14:36:04;19.60;99.90
9790;DHT22;4934;50.852;8.098;2022-10-16T14:38:32;19.60;99.90
9790;DHT22;4934;50.852;8.098;2022-10-16T14:40:58;19.60;99.90
9790;DHT22;4934;50.852;8.098;2022-10-16T14:43:43;19.60;99.90
9790;DHT22;4934;50.852;8.098;2022-10-16T14:46:18;19.40;99.90
9790;DHT22;4934;50.852;8.098;2022-10-16T14:48:49;19.30;99.90
9790;DHT22;4934;50.852;8.098;2022-10-16T14:51:19;19.20;99.90
9790;DHT22;4934;50.852;8.098;2022-10-16T14:53:46;19.20;99.90
9790;DHT22;4934;50.852;8.098;2022-10-16T14:56:20;19.10;99.90
9790;DHT22;4934;50.852;8.098;2022-10-16T14:58:46;19.00;99.90
9790;DHT22;4934;50.852;8.098;2022-10-16T15:01:12;19.00;99.90
9790;DHT22;4934;50.852;8.098;2022-10-16T15:03:38;19.00;99.90
9790;DHT22;4934;50.852;8.098;2022-10-16T15:06:10;18.90;99.90
9790;DHT22;4934;50.852;8.098;2022-10-16T15:08:37;18.90;99.90
9790;DHT22;4934;50.852;8.098;2022-10-16T15:11:03;18.90;99.90
9790;DHT22;4934;50.852;8.098;2022-10-16T15:13:29;18.90;99.90
9790;DHT22;4934;50.852;8.098;2022-10-16T15:15:55;18.90;99.90
9790;DHT22;4934;50.852;8.098;2022-10-16T15:18:20;18.80;99.90
9790;DHT22;4934;50.852;8.098;2022-10-16T15:20:50;18.70;99.90
9790;DHT22;4934;50.852;8.098;2022-10-16T15:23:21;18.60;99.90
9790;DHT22;4934;50.852;8.098;2022-10-16T15:25:52;18.50;99.90
9790;DHT22;4934;50.852;8.098;2022-10-16T15:28:19;18.40;99.90
9790;DHT22;4934;50.852;8.098;2022-10-16T15:30:45;18.40;99.90
9790;DHT22;4934;50.852;8.098;2022-10-16T15:33:14;18.30;99.90
9790;DHT22;4934;50.852;8.098;2022-10-16T15:35:41;18.30;99.90
9790;DHT22;4934;50.852;8.098;2022-10-16T15:38:09;18.20;99.90
9790;DHT22;4934;50.852;8.098;2022-10-16T15:40:35;18.20;99.90
9790;DHT22;4934;50.852;8.098;2022-10-16T15:43:00;18.10;99.90
9790;DHT22;4934;50.852;8.098;2022-10-16T15:45:26;18.00;99.90
9790;DHT22;4934;50.852;8.098;2022-10-16T15:47:52;17.90;99.90
9790;DHT22;4934;50.852;8.098;2022-10-16T15:50:17;17.80;99.90
9790;DHT22;4934;50.852;8.098;2022-10-16T15:52:43;17.80;99.90
9790;DHT22;4934;50.852;8.098;2022-10-16T15:55:10;17.80;99.90
9790;DHT22;4934;50.852;8.098;2022-10-16T15:57:37;17.70;99.90
9790;DHT22;4934;50.852;8.098;2022-10-16T16:00:09;17.60;99.90
9790;DHT22;4934;50.852;8.098;2022-10-16T16:02:35;17.50;99.90
9790;DHT22;4934;50.852;8.098;2022-10-16T16:05:01;17.40;99.90
9790;DHT22;4934;50.852;8.098;2022-10-16T16:07:27;17.30;99.90
9790;DHT22;4934;50.852;8.098;2022-10-16T16:09:53;17.30;99.90
9790;DHT22;4934;50.852;8.098;2022-10-16T16:12:18;17.30;99.90
9790;DHT22;4934;50.852;8.098;2022-10-16T16:14:44;17.20;99.90
9790;DHT22;4934;50.852;8.098;2022-10-16T16:17:11;17.10;99.90
9790;DHT22;4934;50.852;8.098;2022-10-16T16:19:37;17.00;99.90
9790;DHT22;4934;50.852;8.098;2022-10-16T16:22:02;16.90;99.90
9790;DHT22;4934;50.852;8.098;2022-10-16T16:24:28;16.90;99.90
9790;DHT22;4934;50.852;8.098;2022-10-16T16:26:54;16.90;99.90
9790;DHT22;4934;50.852;8.098;2022-10-16T16:29:19;16.80;99.90
9790;DHT22;4934;50.852;8.098;2022-10-16T16:31:45;16.80;99.90
9790;DHT22;4934;50.852;8.098;2022-10-16T16:34:12;16.70;99.90
9790;DHT22;4934;50.852;8.098;2022-10-16T16:36:38;16.70;99.90
9790;DHT22;4934;50.852;8.098;2022-10-16T16:39:05;16.60;99.90
9790;DHT22;4934;50.852;8.098;2022-10-16T16:41:31;16.60;99.90
9790;DHT22;4934;50.852;8.098;2022-10-16T16:44:06;16.50;99.90
9790;DHT22;4934;50.852;8.098;2022-10-16T16:46:33;16.40;99.90
9790;DHT22;4934;50.852;8.098;2022-10-16T16:49:00;16.30;99.90
9790;DHT22;4934;50.852;8.098;2022-10-16T16:51:26;16.30;99.90
9790;DHT22;4934;50.852;8.098;2022-10-16T16:53:53;16.30;99.90
9790;DHT22;4934;50.852;8.098;2022-10-16T16:56:19;16.20;99.90
9790;DHT22;4934;50.852;8.098;2022-10-16T16:58:46;16.20;99.90
9790;DHT22;4934;50.852;8.098;2022-10-16T17:01:13;16.10;99.90
9790;DHT22;4934;50.852;8.098;2022-10-16T17:03:41;16.10;99.90
9790;DHT22;4934;50.852;8.098;2022-10-16T17:06:10;16.10;99.90
9790;DHT22;4934;50.852;8.098;2022-10-16T17:08:37;16.00;99.90
9790;DHT22;4934;50.852;8.098;2022-10-16T17:11:04;16.00;99.90
9790;DHT22;4934;50.852;8.098;2022-10-16T17:13:32;16.00;99.90
9790;DHT22;4934;50.852;8.098;2022-10-16T17:16:04;15.90;99.90
9790;DHT22;4934;50.852;8.098;2022-10-16T17:18:30;15.90;99.90
9790;DHT22;4934;50.852;8.098;2022-10-16T17:20:59;15.90;99.90
9790;DHT22;4934;50.852;8.098;2022-10-16T17:23:25;15.90;99.90
9790;DHT22;4934;50.852;8.098;2022-10-16T17:25:51;15.80;99.90
9790;DHT22;4934;50.852;8.098;2022-10-16T17:28:17;15.90;99.90
9790;DHT22;4934;50.852;8.098;2022-10-16T17:30:43;15.90;99.90
9790;DHT22;4934;50.852;8.098;2022-10-16T17:33:10;15.80;99.90
9790;DHT22;4934;50.852;8.098;2022-10-16T17:35:37;15.80;99.90
9790;DHT22;4934;50.852;8.098;2022-10-16T17:38:03;15.90;99.90
9790;DHT22;4934;50.852;8.098;2022-10-16T17:40:29;16.00;99.90
9790;DHT22;4934;50.852;8.098;2022-10-16T17:42:55;15.90;99.90
9790;DHT22;4934;50.852;8.098;2022-10-16T17:45:20;15.90;99.90
9790;DHT22;4934;50.852;8.098;2022-10-16T17:47:46;15.90;99.90
9790;DHT22;4934;50.852;8.098;2022-10-16T17:50:11;16.00;99.90
9790;DHT22;4934;50.852;8.098;2022-10-16T17:52:37;15.90;99.90
9790;DHT22;4934;50.852;8.098;2022-10-16T17:55:03;15.80;99.90
9790;DHT22;4934;50.852;8.098;2022-10-16T17:57:28;15.70;99.90
9790;DHT22;4934;50.852;8.098;2022-10-16T17:59:54;15.70;99.90
9790;DHT22;4934;50.852;8.098;2022-10-16T18:02:21;15.60;99.90
9790;DHT22;4934;50.852;8.098;2022-10-16T18:04:48;15.50;99.90
9790;DHT22;4934;50.852;8.098;2022-10-16T18:07:14;15.50;99.90